Time;durP1;ratioP1;P1;durP2;ratioP2;P2;SDS_P1;SDS_P2;PMS_P1;PMS_P2;Temp;Humidity;BMP_temperature;BMP_pressure;BME280_temperature;BME280_humidity;BME280_pressure;Samples;Min_cycle;Max_cycle;Signal;HPM_P1;HPM_P2
2022/05/04 00:01:46;;;;;;;18.50;14.40;;;10.10;99.90;;;;;;5088959;28;20909;-65
2022/05/04 00:04:13;;;;;;;16.17;14.00;;;10.10;99.90;;;;;;5089921;28;20434;-65
2022/05/04 00:06:41;;;;;;;17.83;15.83;;;10.20;99.90;;;;;;5090183;28;20449;-65
2022/05/04 00:09:08;;;;;;;16.00;14.40;;;10.30;99.90;;;;;;5090185;28;20562;-65
2022/05/04 00:11:35;;;;;;;17.27;15.53;;;10.30;99.90;;;;;;5089564;28;20458;-65
2022/05/04 00:14:02;;;;;;;15.20;13.70;;;10.40;99.90;;;;;;5090027;28;20960;-65
2022/05/04 00:16:29;;;;;;;17.13;14.17;;;10.40;99.90;;;;;;5089955;28;20434;-65
2022/05/04 00:18:55;;;;;;;16.97;13.67;;;10.50;99.90;;;;;;5089648;28;20926;-65
2022/05/04 00:21:22;;;;;;;16.03;14.50;;;10.40;99.90;;;;;;5089635;28;20476;-65
2022/05/04 00:23:50;;;;;;;17.27;15.20;;;10.40;99.90;;;;;;5089782;28;20525;-65
2022/05/04 00:26:17;;;;;;;17.13;14.43;;;10.40;99.90;;;;;;5089853;28;20813;-66
2022/05/04 00:28:44;;;;;;;16.23;14.53;;;10.30;99.90;;;;;;5089712;28;20657;-64
2022/05/04 00:31:11;;;;;;;17.43;15.40;;;10.30;99.90;;;;;;5089424;28;20484;-65
2022/05/04 00:33:38;;;;;;;15.53;13.93;;;10.20;99.90;;;;;;5089789;28;20973;-65
2022/05/04 00:36:05;;;;;;;17.17;15.40;;;10.20;99.90;;;;;;5090003;28;20446;-65
2022/05/04 00:38:31;;;;;;;15.53;13.33;;;10.10;99.90;;;;;;5089839;28;20469;-65
2022/05/04 00:40:59;;;;;;;17.00;13.80;;;10.00;99.90;;;;;;5089282;28;20549;-64
2022/05/04 00:43:27;;;;;;;15.67;14.07;;;9.90;99.90;;;;;;5089567;28;20831;-65
2022/05/04 00:45:53;;;;;;;18.87;14.83;;;10.00;99.90;;;;;;5089499;28;20442;-65
2022/05/04 00:48:20;;;;;;;15.87;14.20;;;9.90;99.90;;;;;;5089467;28;20918;-65
2022/05/04 00:50:49;;;;;;;17.47;15.77;;;9.90;99.90;;;;;;5089344;28;20480;-65
2022/05/04 00:53:17;;;;;;;17.00;15.20;;;9.90;99.90;;;;;;5089559;28;20438;-66
2022/05/04 00:55:44;;;;;;;15.40;13.53;;;9.80;99.90;;;;;;5089592;28;20449;-65
2022/05/04 01:01:01;;;;;;;15.40;13.80;;;9.80;99.90;;;;;;5089184;28;20429;-64
2022/05/04 01:03:28;;;;;;;15.10;13.60;;;9.70;99.90;;;;;;5089494;28;20444;-65
2022/05/04 01:05:55;;;;;;;15.07;13.40;;;9.80;99.90;;;;;;5089581;28;20442;-65
2022/05/04 01:08:22;;;;;;;14.37;12.87;;;9.70;99.90;;;;;;5089640;28;20453;-66
2022/05/04 01:10:49;;;;;;;14.67;13.07;;;9.70;99.90;;;;;;5088971;28;20969;-66
2022/05/04 01:13:19;;;;;;;17.67;14.03;;;9.60;99.90;;;;;;5091499;28;20434;-65
2022/05/04 01:15:46;;;;;;;16.30;13.93;;;9.50;99.90;;;;;;5093650;28;20442;-66
2022/05/04 01:18:13;;;;;;;14.10;12.07;;;9.40;99.90;;;;;;5093471;28;20430;-65
2022/05/04 01:20:40;;;;;;;13.77;12.40;;;9.60;99.90;;;;;;5092885;28;20972;-64
2022/05/04 01:23:08;;;;;;;15.33;13.50;;;9.60;99.90;;;;;;5093260;28;20438;-65
2022/05/04 01:25:35;;;;;;;18.63;16.00;;;9.50;99.90;;;;;;5093194;28;20487;-66
2022/05/04 01:28:02;;;;;;;22.77;16.50;;;9.50;99.90;;;;;;5093292;28;20567;-65
2022/05/04 01:30:30;;;;;;;19.70;17.27;;;9.50;99.90;;;;;;5092578;28;20485;-65
2022/05/04 01:32:56;;;;;;;24.90;19.63;;;9.50;99.90;;;;;;5093043;28;20446;-65
2022/05/04 01:35:23;;;;;;;23.43;18.40;;;9.50;99.90;;;;;;5092792;28;20444;-65
2022/05/04 01:37:50;;;;;;;21.87;18.67;;;9.50;99.90;;;;;;5092708;28;20434;-64
2022/05/04 01:40:18;;;;;;;20.77;18.00;;;9.60;99.90;;;;;;5092238;28;20436;-65
2022/05/04 01:42:45;;;;;;;19.93;17.27;;;9.50;99.90;;;;;;5092605;28;20465;-65
2022/05/04 01:45:12;;;;;;;21.03;17.67;;;9.50;99.90;;;;;;5092781;28;20449;-65
2022/05/04 01:47:40;;;;;;;18.80;16.50;;;9.50;99.90;;;;;;5092499;28;20499;-65
2022/05/04 01:50:07;;;;;;;18.87;16.97;;;9.50;99.90;;;;;;5092064;28;20485;-64
2022/05/04 01:52:34;;;;;;;17.27;15.43;;;9.50;99.90;;;;;;5092320;28;20933;-65
2022/05/04 01:55:01;;;;;;;19.33;17.33;;;9.60;99.90;;;;;;5092766;28;20437;-65
2022/05/04 01:57:29;;;;;;;18.33;16.27;;;9.70;99.90;;;;;;5092552;28;20446;-63
2022/05/04 01:59:57;;;;;;;17.30;15.57;;;9.60;99.90;;;;;;5092177;28;20442;-65
2022/05/04 02:02:24;;;;;;;15.77;14.17;;;9.70;99.90;;;;;;5092128;28;20665;-65
2022/05/04 02:04:51;;;;;;;16.97;15.07;;;9.80;99.90;;;;;;5092123;28;20440;-65
2022/05/04 02:07:18;;;;;;;18.77;16.83;;;9.80;99.90;;;;;;5091992;28;20472;-66
2022/05/04 02:09:44;;;;;;;17.23;15.50;;;9.80;99.90;;;;;;5091811;28;20984;-65
2022/05/04 02:12:12;;;;;;;17.70;15.80;;;9.90;99.90;;;;;;5092083;28;20467;-66
2022/05/04 02:14:40;;;;;;;17.33;15.50;;;9.90;99.90;;;;;;5092100;28;20434;-64
2022/05/04 02:17:07;;;;;;;15.77;14.13;;;9.90;99.90;;;;;;5092245;28;20442;-65
2022/05/04 02:19:34;;;;;;;17.90;15.23;;;9.90;99.90;;;;;;5091789;28;20446;-65
2022/05/04 02:22:00;;;;;;;16.60;14.90;;;9.90;99.90;;;;;;5091496;28;21161;-65
2022/05/04 02:24:27;;;;;;;17.00;15.40;;;9.80;99.90;;;;;;5090936;28;20929;-65
2022/05/04 02:26:54;;;;;;;16.70;15.03;;;9.80;99.90;;;;;;5091729;28;20442;-65
2022/05/04 02:29:21;;;;;;;16.83;15.03;;;9.80;99.90;;;;;;5091669;28;20537;-65
2022/05/04 02:31:49;;;;;;;15.77;14.27;;;9.80;99.90;;;;;;5091509;28;20489;-65
2022/05/04 02:34:16;;;;;;;16.40;14.70;;;9.80;99.90;;;;;;5091424;28;20480;-65
2022/05/04 02:39:27;;;;;;;15.40;13.87;;;10.00;99.90;;;;;;5091685;28;20417;-65
2022/05/04 02:41:55;;;;;;;15.47;13.87;;;10.00;99.90;;;;;;5091103;28;20541;-65
2022/05/04 02:44:21;;;;;;;15.97;14.40;;;10.10;99.90;;;;;;5091310;28;20450;-66
2022/05/04 02:46:50;;;;;;;15.30;13.77;;;10.00;99.90;;;;;;5091270;28;20814;-65
2022/05/04 02:49:17;;;;;;;16.20;14.60;;;10.00;99.90;;;;;;5091369;28;20504;-66
2022/05/04 02:51:44;;;;;;;16.37;14.57;;;10.20;99.90;;;;;;5091021;28;20888;-65
2022/05/04 02:54:11;;;;;;;16.63;14.93;;;10.20;99.90;;;;;;5091292;28;20526;-65
2022/05/04 02:56:38;;;;;;;17.27;15.47;;;10.10;99.90;;;;;;5091319;28;20439;-65
2022/05/04 02:59:05;;;;;;;17.20;15.47;;;10.10;99.90;;;;;;5090994;28;20524;-65
2022/05/04 03:04:17;;;;;;;15.97;14.30;;;10.10;99.90;;;;;;5091071;28;20430;-66
2022/05/04 03:06:44;;;;;;;15.10;13.60;;;10.20;99.90;;;;;;5091142;28;20446;-65
2022/05/04 03:09:12;;;;;;;14.97;13.47;;;10.30;99.90;;;;;;5091031;28;20434;-66
2022/05/04 03:11:57;;;;;;;15.13;13.63;;;10.30;99.90;;;;;;5090478;28;20478;-66
2022/05/04 03:14:25;;;;;;;17.17;15.47;;;10.20;99.90;;;;;;5091034;28;20446;-66
2022/05/04 03:16:53;;;;;;;16.50;14.80;;;10.20;99.90;;;;;;5090962;28;20449;-65
2022/05/04 03:19:21;;;;;;;16.40;14.70;;;10.20;99.90;;;;;;5090811;28;20444;-65
2022/05/04 03:21:48;;;;;;;15.80;14.20;;;10.30;99.90;;;;;;5090654;28;20458;-65
2022/05/04 03:24:15;;;;;;;15.40;13.90;;;10.20;99.90;;;;;;5090803;28;20442;-65
2022/05/04 03:26:42;;;;;;;14.97;13.40;;;10.40;99.90;;;;;;5090689;28;20442;-66
2022/05/04 03:29:09;;;;;;;15.70;14.17;;;10.40;99.90;;;;;;5090713;28;20442;-65
2022/05/04 03:31:36;;;;;;;15.80;13.57;;;10.40;99.90;;;;;;5090402;28;20482;-66
2022/05/04 03:34:03;;;;;;;15.70;14.10;;;10.40;99.90;;;;;;5090827;28;20446;-65
2022/05/04 03:36:32;;;;;;;15.97;14.37;;;10.40;99.90;;;;;;5090360;28;20439;-66
2022/05/04 03:39:01;;;;;;;13.40;12.10;;;10.40;99.90;;;;;;5090393;28;20472;-65
2022/05/04 03:41:27;;;;;;;14.50;12.20;;;10.50;99.90;;;;;;5090283;28;20461;-64
2022/05/04 03:43:54;;;;;;;16.60;15.00;;;10.50;99.90;;;;;;5089682;28;20812;-65
2022/05/04 03:46:23;;;;;;;18.40;15.07;;;10.50;99.90;;;;;;5090175;28;20453;-65
2022/05/04 03:48:51;;;;;;;16.43;14.13;;;10.50;99.90;;;;;;5089695;28;20566;-65
2022/05/04 03:51:19;;;;;;;16.13;14.53;;;10.50;99.90;;;;;;5090141;28;20492;-65
2022/05/04 03:53:47;;;;;;;16.50;14.80;;;10.50;99.90;;;;;;5090662;28;20442;-65
2022/05/04 03:56:14;;;;;;;16.03;14.33;;;10.50;99.90;;;;;;5090470;28;20473;-65
2022/05/04 03:58:42;;;;;;;17.83;15.37;;;10.50;99.90;;;;;;5090713;28;20456;-65
2022/05/04 04:01:09;;;;;;;16.57;14.80;;;10.50;99.90;;;;;;5090229;28;20454;-65
2022/05/04 04:03:36;;;;;;;16.53;13.87;;;10.60;99.90;;;;;;5090209;28;20549;-65
2022/05/04 04:06:03;;;;;;;16.80;15.10;;;10.60;99.90;;;;;;5090177;28;20438;-65
2022/05/04 04:08:30;;;;;;;14.77;13.30;;;10.60;99.90;;;;;;5090116;28;20930;-65
2022/05/04 04:10:58;;;;;;;20.70;15.10;;;10.60;99.90;;;;;;5089416;28;20509;-65
2022/05/04 04:13:26;;;;;;;16.10;14.40;;;10.60;99.90;;;;;;5090148;28;20875;-65
2022/05/04 04:15:53;;;;;;;16.07;14.47;;;10.60;99.90;;;;;;5090087;28;20434;-65
2022/05/04 04:18:20;;;;;;;15.47;13.80;;;10.70;99.90;;;;;;5089887;28;20437;-65
2022/05/04 04:23:32;;;;;;;17.30;15.60;;;10.70;99.90;;;;;;5089941;28;20417;-65
2022/05/04 04:26:01;;;;;;;17.10;15.30;;;10.80;99.90;;;;;;5090009;28;20438;-65
2022/05/04 04:28:28;;;;;;;17.90;15.60;;;10.60;99.90;;;;;;5089572;28;20441;-66
2022/05/04 04:30:55;;;;;;;17.77;15.87;;;10.70;99.90;;;;;;5086184;28;20481;-65
2022/05/04 04:33:26;;;;;;;17.50;15.57;;;10.80;99.90;;;;;;5087583;28;20959;-65
2022/05/04 04:35:53;;;;;;;17.30;15.60;;;10.80;99.90;;;;;;5087905;28;20431;-65
2022/05/04 04:38:20;;;;;;;15.93;14.10;;;10.80;99.90;;;;;;5083652;28;20438;-65
2022/05/04 04:40:47;;;;;;;17.60;15.53;;;10.90;99.90;;;;;;5088280;28;20473;-66
2022/05/04 04:43:15;;;;;;;18.30;14.93;;;10.90;99.90;;;;;;5087782;28;20820;-66
2022/05/04 04:45:44;;;;;;;16.70;15.00;;;10.90;99.90;;;;;;5084314;28;20461;-66
2022/05/04 04:48:11;;;;;;;17.07;15.37;;;10.90;99.90;;;;;;5090988;28;20435;-66
2022/05/04 04:50:37;;;;;;;17.00;15.30;;;11.00;99.90;;;;;;5084822;28;20495;-66
2022/05/04 04:53:04;;;;;;;16.97;15.23;;;10.90;99.90;;;;;;5090589;28;20445;-66
2022/05/04 04:55:31;;;;;;;16.50;14.80;;;10.90;99.90;;;;;;5089936;28;20450;-65
2022/05/04 04:57:58;;;;;;;18.00;16.10;;;11.00;99.90;;;;;;5089648;28;20472;-66
2022/05/04 05:00:26;;;;;;;17.83;15.90;;;11.10;99.90;;;;;;5088213;28;20449;-66
2022/05/04 05:02:53;;;;;;;17.87;15.90;;;11.30;99.90;;;;;;5080894;28;20447;-65
2022/05/04 05:05:20;;;;;;;17.63;15.90;;;11.30;99.90;;;;;;5087232;28;20438;-66
2022/05/04 05:07:47;;;;;;;18.63;14.70;;;11.20;99.90;;;;;;5083817;28;20817;-65
2022/05/04 05:10:14;;;;;;;19.90;16.60;;;11.30;99.90;;;;;;5082390;28;20444;-65
2022/05/04 05:12:41;;;;;;;17.30;15.50;;;11.30;99.90;;;;;;5089068;28;20528;-66
2022/05/04 05:17:55;;;;;;;18.10;16.20;;;11.40;99.90;;;;;;5089459;28;20498;-65
2022/05/04 05:20:22;;;;;;;16.93;15.23;;;11.40;99.90;;;;;;5085549;28;20457;-65
2022/05/04 05:22:48;;;;;;;18.50;16.10;;;11.40;99.90;;;;;;5088271;28;20971;-65
2022/05/04 05:25:15;;;;;;;19.17;15.40;;;11.60;99.90;;;;;;5092331;28;20439;-65
2022/05/04 05:27:42;;;;;;;19.93;17.90;;;11.70;99.90;;;;;;5092747;28;20482;-65
2022/05/04 05:30:12;;;;;;;17.80;16.10;;;11.80;99.90;;;;;;5092203;28;20536;-65
2022/05/04 05:32:39;;;;;;;16.70;15.07;;;11.90;99.90;;;;;;5092283;28;20469;-65
2022/05/04 05:35:09;;;;;;;17.00;15.30;;;12.00;99.90;;;;;;5092472;28;20441;-65
2022/05/04 05:37:36;;;;;;;17.63;15.73;;;12.10;99.90;;;;;;5092705;28;20450;-66
2022/05/04 05:40:03;;;;;;;15.33;13.83;;;12.20;99.90;;;;;;5092372;28;20442;-65
2022/05/04 05:42:30;;;;;;;17.10;14.50;;;12.30;99.90;;;;;;5092254;28;20822;-65
2022/05/04 05:44:57;;;;;;;18.97;16.90;;;12.40;99.90;;;;;;5092534;28;20442;-65
2022/05/04 05:47:24;;;;;;;15.80;14.30;;;12.30;99.90;;;;;;5092584;28;20525;-65
2022/05/04 05:49:50;;;;;;;17.10;15.33;;;12.30;99.90;;;;;;5092460;28;20438;-65
2022/05/04 05:52:18;;;;;;;17.07;15.37;;;12.40;99.90;;;;;;5092154;28;20485;-65
2022/05/04 05:54:45;;;;;;;18.27;16.47;;;12.40;99.90;;;;;;5092406;28;20430;-65
2022/05/04 05:57:12;;;;;;;14.97;13.47;;;12.50;99.90;;;;;;5092141;28;20442;-66
2022/05/04 05:59:39;;;;;;;17.27;15.50;;;12.60;99.90;;;;;;5090432;28;20442;-65
2022/05/04 06:02:06;;;;;;;15.53;13.80;;;12.80;99.90;;;;;;5092009;28;20472;-66
2022/05/04 06:04:33;;;;;;;15.37;13.97;;;12.90;99.90;;;;;;5092353;28;20500;-65
2022/05/04 06:07:00;;;;;;;13.47;12.10;;;13.10;99.90;;;;;;5092128;28;20438;-66
2022/05/04 06:09:28;;;;;;;14.13;12.70;;;13.20;99.90;;;;;;5092093;28;20446;-65
2022/05/04 06:11:56;;;;;;;15.23;13.83;;;13.10;99.90;;;;;;5091645;28;20478;-65
2022/05/04 06:14:23;;;;;;;15.50;14.10;;;13.20;99.90;;;;;;5092186;28;20462;-65
2022/05/04 06:16:50;;;;;;;12.60;11.47;;;13.10;99.90;;;;;;5092152;28;20965;-65
2022/05/04 06:19:17;;;;;;;15.73;14.23;;;13.00;99.90;;;;;;5091779;28;20481;-65
2022/05/04 06:21:44;;;;;;;15.80;14.30;;;13.10;99.90;;;;;;5091623;28;20564;-66
2022/05/04 06:24:11;;;;;;;13.97;12.57;;;13.20;99.90;;;;;;5091775;28;20513;-65
2022/05/04 06:26:39;;;;;;;14.40;13.00;;;13.30;99.90;;;;;;5091850;28;20477;-65
2022/05/04 06:29:06;;;;;;;12.67;11.47;;;13.40;99.90;;;;;;5091928;28;20438;-65
2022/05/04 06:34:17;;;;;;;15.87;14.37;;;13.60;99.90;;;;;;5091883;28;20436;-65
2022/05/04 06:36:44;;;;;;;15.20;12.90;;;13.70;99.90;;;;;;5091794;28;20437;-65
2022/05/04 06:39:12;;;;;;;14.53;13.13;;;13.70;99.90;;;;;;5091948;28;20465;-65
2022/05/04 06:41:41;;;;;;;14.37;12.90;;;13.60;99.90;;;;;;5091429;28;21239;-65
2022/05/04 06:44:09;;;;;;;14.70;13.30;;;13.70;99.90;;;;;;5091905;28;20799;-65
2022/05/04 06:46:41;;;;;;;14.93;13.50;;;13.70;99.90;;;;;;5091642;28;20945;-66
2022/05/04 06:49:09;;;;;;;14.80;13.23;;;13.80;99.90;;;;;;5091555;28;20458;-65
2022/05/04 06:51:36;;;;;;;13.80;12.40;;;14.00;99.90;;;;;;5091245;28;20573;-65
2022/05/04 06:54:02;;;;;;;13.07;11.87;;;14.20;99.90;;;;;;5091261;28;20929;-65
2022/05/04 06:56:29;;;;;;;14.57;13.00;;;14.30;99.90;;;;;;5091274;28;20446;-66
2022/05/04 06:58:57;;;;;;;14.07;12.70;;;14.50;99.90;;;;;;5091391;28;20528;-65
2022/05/04 07:01:24;;;;;;;15.77;13.50;;;14.80;99.90;;;;;;5090832;28;20987;-65
2022/05/04 07:03:51;;;;;;;16.37;11.13;;;14.90;99.90;;;;;;5091191;28;20440;-65
2022/05/04 07:06:18;;;;;;;15.60;13.67;;;15.10;99.90;;;;;;5091309;28;20434;-65
2022/05/04 07:08:45;;;;;;;12.07;10.97;;;15.20;99.90;;;;;;5091167;28;20804;-64
2022/05/04 07:11:12;;;;;;;13.93;11.73;;;15.30;99.90;;;;;;5090251;28;20472;-65
2022/05/04 07:13:38;;;;;;;12.87;11.57;;;15.10;99.90;;;;;;5090922;28;20943;-65
2022/05/04 07:16:08;;;;;;;11.23;10.13;;;15.10;99.90;;;;;;5090923;28;20442;-65
2022/05/04 07:18:35;;;;;;;14.53;13.10;;;15.30;99.90;;;;;;5090853;28;20441;-65
2022/05/04 07:21:02;;;;;;;12.73;11.63;;;15.50;99.90;;;;;;5090250;28;20480;-65
2022/05/04 07:23:29;;;;;;;14.63;13.13;;;15.80;99.90;;;;;;5090940;28;20435;-65
2022/05/04 07:25:55;;;;;;;13.57;12.20;;;16.00;99.90;;;;;;5090851;28;20453;-65
2022/05/04 07:28:22;;;;;;;14.33;12.70;;;16.30;99.90;;;;;;5090750;28;20446;-65
2022/05/04 07:30:49;;;;;;;13.37;12.10;;;16.60;99.90;;;;;;5090167;28;20828;-65
2022/05/04 07:33:17;;;;;;;13.97;12.60;;;16.80;99.90;;;;;;5090712;28;20470;-65
2022/05/04 07:35:44;;;;;;;18.40;12.77;;;16.80;99.90;;;;;;5090678;28;20445;-65
2022/05/04 07:38:11;;;;;;;16.57;12.43;;;16.90;99.90;;;;;;5090860;28;20448;-65
2022/05/04 07:43:22;;;;;;;15.87;13.50;;;16.60;99.90;;;;;;5090547;28;20808;-64
2022/05/04 07:45:48;;;;;;;15.70;13.57;;;16.30;99.90;;;;;;5090430;28;20449;-64
2022/05/04 07:48:16;;;;;;;16.80;13.63;;;16.10;99.90;;;;;;5090600;28;20440;-65
2022/05/04 07:50:43;;;;;;;14.60;12.93;;;15.80;99.90;;;;;;5089924;28;20458;-65
2022/05/04 07:53:10;;;;;;;14.87;13.40;;;15.90;99.90;;;;;;5090272;28;20855;-65
2022/05/04 07:55:37;;;;;;;14.63;13.10;;;15.90;99.90;;;;;;5090413;28;20944;-64
2022/05/04 07:58:04;;;;;;;18.53;14.13;;;15.80;99.90;;;;;;5090019;28;20453;-65
2022/05/04 08:06:03;;;;;;;13.40;12.00;;;17.20;99.90;;;;;;5090976;28;20422;-66
2022/05/04 08:08:29;;;;;;;17.50;13.13;;;17.70;99.90;;;;;;5090177;28;21016;-65
2022/05/04 08:10:57;;;;;;;14.70;13.23;;;18.10;99.90;;;;;;5091095;28;20468;-65
2022/05/04 08:13:24;;;;;;;13.63;12.23;;;18.40;99.90;;;;;;5089790;28;20484;-65
2022/05/04 08:15:51;;;;;;;13.80;12.40;;;18.80;99.90;;;;;;5090086;28;20438;-65
2022/05/04 08:18:20;;;;;;;14.63;12.90;;;19.00;99.90;;;;;;5089908;28;20492;-65
2022/05/04 08:20:47;;;;;;;12.10;11.00;;;19.10;99.90;;;;;;5089357;28;20551;-65
2022/05/04 08:23:14;;;;;;;13.83;12.53;;;19.40;99.90;;;;;;5088821;28;20960;-65
2022/05/04 08:25:41;;;;;;;16.93;11.83;;;19.70;99.90;;;;;;5090014;28;20480;-65
2022/05/04 08:28:09;;;;;;;12.47;10.67;;;19.70;99.90;;;;;;5089795;28;20811;-65
2022/05/04 08:30:35;;;;;;;12.23;11.00;;;19.80;99.90;;;;;;5089584;28;20529;-65
2022/05/04 08:33:02;;;;;;;12.20;11.03;;;20.00;99.90;;;;;;5089672;28;20484;-65
2022/05/04 08:35:30;;;;;;;14.27;12.83;;;20.30;99.90;;;;;;5089599;28;20796;-65
2022/05/04 08:37:57;;;;;;;12.93;11.70;;;20.40;99.90;;;;;;5089834;28;20450;-65
2022/05/04 08:40:24;;;;;;;12.37;11.00;;;20.50;99.90;;;;;;5089408;28;20446;-65
2022/05/04 08:42:53;;;;;;;11.53;10.37;;;20.50;99.90;;;;;;5089521;28;20541;-65
2022/05/04 08:45:20;;;;;;;13.23;11.93;;;20.50;99.90;;;;;;5089553;28;20461;-65
2022/05/04 08:47:47;;;;;;;13.53;12.30;;;20.50;99.90;;;;;;5089653;28;20446;-65
2022/05/04 08:50:17;;;;;;;13.93;12.53;;;20.20;99.90;;;;;;5089229;28;20445;-65
2022/05/04 08:52:53;;;;;;;16.27;14.77;;;20.20;99.90;;;;;;5089836;28;20482;-65
2022/05/04 08:55:21;;;;;;;15.23;12.03;;;19.70;99.90;;;;;;5083801;28;20438;-64
2022/05/04 08:57:49;;;;;;;15.13;13.73;;;19.10;99.90;;;;;;5088159;28;20522;-65
2022/05/04 09:00:17;;;;;;;14.73;13.23;;;19.10;99.90;;;;;;5088076;28;20438;-64
2022/05/04 09:02:44;;;;;;;14.87;13.50;;;19.20;99.90;;;;;;5088556;28;20434;-64
2022/05/04 09:05:22;;;;;;;14.40;13.10;;;19.40;99.90;;;;;;5088654;28;20438;-65
2022/05/04 09:07:51;;;;;;;13.63;12.50;;;19.50;99.90;;;;;;5088583;28;20790;-65
2022/05/04 09:10:20;;;;;;;15.03;13.43;;;19.40;99.90;;;;;;5088024;28;20446;-65
2022/05/04 09:12:49;;;;;;;14.80;13.50;;;19.40;99.90;;;;;;5088470;28;20485;-65
2022/05/04 09:15:23;;;;;;;17.10;15.40;;;19.40;99.90;;;;;;5088711;28;20813;-66
2022/05/04 09:17:58;;;;;;;15.23;13.73;;;19.70;99.90;;;;;;5088498;28;20461;-65
2022/05/04 09:23:13;;;;;;;15.17;13.90;;;19.80;99.90;;;;;;5088484;28;20452;-64
2022/05/04 09:25:40;;;;;;;15.80;14.30;;;19.90;99.90;;;;;;5088493;28;20457;-64
2022/05/04 09:28:11;;;;;;;16.27;14.27;;;19.50;99.90;;;;;;5088279;28;20449;-65
2022/05/04 09:30:42;;;;;;;16.10;14.23;;;19.10;99.90;;;;;;5088051;28;20838;-64
2022/05/04 09:33:11;;;;;;;17.83;14.53;;;18.90;99.90;;;;;;5088248;28;20485;-65
2022/05/04 09:35:40;;;;;;;16.30;14.80;;;18.70;99.90;;;;;;5091766;28;20590;-64
2022/05/04 09:46:39;;;;;;;16.63;14.90;;;18.30;99.90;;;;;;5091847;28;20430;-66
2022/05/04 09:49:13;;;;;;;16.73;15.13;;;18.50;99.90;;;;;;5091501;28;20453;-64
2022/05/04 09:51:41;;;;;;;20.93;15.33;;;18.70;99.90;;;;;;5091452;28;20457;-64
2022/05/04 09:54:20;;;;;;;17.90;16.13;;;18.50;99.90;;;;;;5091663;28;20481;-64
2022/05/04 09:56:49;;;;;;;16.17;14.47;;;18.60;99.90;;;;;;5091552;28;20472;-64
2022/05/04 09:59:17;;;;;;;16.83;15.13;;;18.70;99.90;;;;;;5091899;28;20525;-65
2022/05/04 10:01:45;;;;;;;16.77;15.17;;;18.50;99.90;;;;;;5091603;28;20466;-64
2022/05/04 10:04:12;;;;;;;19.13;17.13;;;18.30;99.90;;;;;;5091667;28;20438;-64
2022/05/04 10:06:40;;;;;;;17.30;13.43;;;18.00;99.90;;;;;;5091611;28;21024;-65
2022/05/04 10:09:08;;;;;;;15.23;11.67;;;17.80;99.90;;;;;;5091101;28;20525;-65
2022/05/04 10:11:37;;;;;;;14.90;12.47;;;17.50;99.90;;;;;;5091009;28;20545;-64
2022/05/04 10:14:08;;;;;;;14.53;12.87;;;17.40;99.90;;;;;;5091443;28;20478;-64
2022/05/04 10:16:44;;;;;;;12.67;11.47;;;17.70;99.90;;;;;;5091280;28;20438;-65
2022/05/04 10:19:19;;;;;;;13.53;12.27;;;17.80;99.90;;;;;;5091011;28;20879;-65
2022/05/04 10:21:51;;;;;;;13.53;12.00;;;18.10;99.90;;;;;;5090660;28;20556;-65
2022/05/04 10:24:20;;;;;;;12.53;11.23;;;18.50;99.90;;;;;;5091257;28;20515;-64
2022/05/04 10:26:48;;;;;;;11.90;10.70;;;19.00;99.90;;;;;;5091081;28;20453;-65
2022/05/04 10:32:08;;;;;;;12.10;11.00;;;19.70;99.90;;;;;;5090379;28;20643;-65
2022/05/04 10:34:41;;;;;;;12.20;10.47;;;20.40;99.90;;;;;;5090911;28;20504;-65
2022/05/04 10:37:09;;;;;;;11.17;10.07;;;21.10;99.90;;;;;;5090941;28;20434;-65
2022/05/04 10:39:36;;;;;;;11.30;10.30;;;21.50;99.90;;;;;;5090602;28;20446;-65
2022/05/04 10:42:04;;;;;;;12.10;11.00;;;21.30;99.90;;;;;;5090237;28;20477;-65
2022/05/04 10:44:54;;;;;;;11.70;10.53;;;21.00;99.90;;;;;;5090521;28;20445;-65
2022/05/04 10:47:22;;;;;;;15.57;11.57;;;21.30;99.90;;;;;;5079413;28;20450;-65
2022/05/04 10:49:58;;;;;;;12.87;11.67;;;21.20;99.90;;;;;;5090048;28;20472;-65
2022/05/04 10:52:25;;;;;;;13.93;12.30;;;21.50;99.90;;;;;;5090497;28;20481;-64
2022/05/04 10:54:52;;;;;;;13.07;11.97;;;21.80;99.90;;;;;;5090159;28;20442;-65
2022/05/04 10:57:39;;;;;;;13.07;11.93;;;21.40;99.90;;;;;;5090383;28;20798;-65
2022/05/04 11:00:10;;;;;;;13.50;12.40;;;21.50;99.90;;;;;;5089797;28;20444;-65
2022/05/04 11:02:42;;;;;;;16.83;12.17;;;21.90;99.90;;;;;;5090362;28;20466;-65
2022/05/04 11:05:13;;;;;;;13.43;12.03;;;22.50;99.90;;;;;;5090078;28;20442;-65
2022/05/04 11:07:40;;;;;;;11.53;10.60;;;23.00;99.90;;;;;;5090003;28;20442;-64
2022/05/04 11:10:07;;;;;;;12.93;11.63;;;23.10;99.90;;;;;;5084596;28;20847;-65
2022/05/04 11:12:35;;;;;;;11.70;10.70;;;22.60;99.90;;;;;;5090991;28;20470;-65
2022/05/04 11:15:02;;;;;;;11.80;10.70;;;22.50;99.90;;;;;;5090980;28;20435;-65
2022/05/04 11:17:33;;;;;;;13.10;11.33;;;22.70;99.90;;;;;;5090698;28;20502;-64
2022/05/04 11:20:00;;;;;;;11.40;10.37;;;23.20;99.90;;;;;;5090144;28;20442;-65
2022/05/04 11:22:27;;;;;;;9.83;8.93;;;23.30;99.90;;;;;;5090836;28;20465;-65
2022/05/04 11:24:53;;;;;;;8.70;7.90;;;23.30;99.30;;;;;;5090807;28;20444;-66
2022/05/04 11:27:20;;;;;;;7.83;7.23;;;23.40;99.90;;;;;;5090373;28;20810;-63
2022/05/04 11:29:49;;;;;;;10.77;7.77;;;24.20;98.80;;;;;;5090230;28;20448;-64
2022/05/04 11:32:19;;;;;;;9.47;8.57;;;25.20;98.50;;;;;;5090210;28;20471;-66
2022/05/04 11:34:48;;;;;;;9.17;7.27;;;25.10;98.70;;;;;;5090241;28;20451;-65
2022/05/04 11:37:15;;;;;;;6.77;5.63;;;25.40;96.50;;;;;;5090287;28;20956;-66
2022/05/04 11:39:42;;;;;;;9.97;7.73;;;25.50;95.20;;;;;;5090157;28;20442;-64
2022/05/04 11:42:10;;;;;;;8.50;7.60;;;24.80;92.50;;;;;;5089873;28;20546;-67
2022/05/04 11:44:39;;;;;;;8.17;7.47;;;24.30;93.30;;;;;;5090284;28;20432;-65
2022/05/04 11:47:08;;;;;;;9.83;7.53;;;24.50;94.10;;;;;;5089962;28;20442;-66
2022/05/04 11:49:35;;;;;;;5.97;5.13;;;24.90;95.70;;;;;;5090407;28;20472;-66
2022/05/04 11:52:04;;;;;;;11.93;6.40;;;25.00;95.00;;;;;;5089821;28;20515;-66
2022/05/04 11:54:30;;;;;;;5.63;5.10;;;24.40;93.60;;;;;;5090050;28;20568;-65
2022/05/04 11:56:57;;;;;;;4.97;4.47;;;24.10;95.10;;;;;;5090150;28;20446;-65
2022/05/04 11:59:30;;;;;;;5.20;4.70;;;23.90;95.30;;;;;;5089654;28;20444;-66
2022/05/04 12:01:57;;;;;;;7.40;6.80;;;23.80;93.70;;;;;;5087041;28;20461;-66
2022/05/04 12:04:27;;;;;;;7.13;6.40;;;24.10;95.00;;;;;;5090004;28;20808;-66
2022/05/04 12:06:54;;;;;;;6.40;5.77;;;24.20;93.40;;;;;;5090047;28;20452;-66
2022/05/04 12:09:21;;;;;;;7.90;6.40;;;24.60;94.90;;;;;;5089545;28;20438;-66
2022/05/04 12:11:49;;;;;;;6.90;5.87;;;24.90;94.50;;;;;;5089666;28;20458;-66
2022/05/04 12:14:16;;;;;;;7.83;6.60;;;24.90;94.80;;;;;;5089799;28;20546;-65
2022/05/04 12:16:43;;;;;;;7.57;5.90;;;25.10;94.10;;;;;;5086451;28;20454;-66
2022/05/04 12:19:10;;;;;;;7.17;6.50;;;25.90;93.90;;;;;;5082173;28;20788;-66
2022/05/04 12:21:39;;;;;;;9.70;7.10;;;26.60;91.50;;;;;;5088324;28;20891;-65
2022/05/04 12:24:06;;;;;;;6.80;5.80;;;26.20;92.90;;;;;;5090098;28;20537;-66
2022/05/04 12:26:34;;;;;;;5.67;5.17;;;26.70;91.20;;;;;;5089569;28;20438;-66
2022/05/04 12:34:31;;;;;;;5.30;4.80;;;27.00;81.70;;;;;;5089744;28;20861;-65
2022/05/04 12:37:01;;;;;;;5.03;4.50;;;27.20;80.70;;;;;;5089574;28;20487;-66
2022/05/04 12:39:29;;;;;;;4.70;4.30;;;28.20;84.80;;;;;;5089818;28;20529;-66
2022/05/04 12:41:56;;;;;;;4.90;4.13;;;29.00;87.50;;;;;;5089399;28;20468;-64
2022/05/04 12:44:23;;;;;;;5.90;5.00;;;29.70;83.70;;;;;;5087653;28;20487;-63
2022/05/04 12:46:54;;;;;;;5.10;3.80;;;30.30;70.60;;;;;;5089621;28;20534;-64
2022/05/04 12:49:21;;;;;;;5.00;4.60;;;29.80;73.60;;;;;;5089053;28;20434;-63
2022/05/04 12:51:48;;;;;;;4.37;3.97;;;29.20;67.30;;;;;;5089047;28;20480;-66
2022/05/04 12:54:17;;;;;;;5.30;4.90;;;28.20;74.50;;;;;;5089164;28;20474;-66
2022/05/04 12:56:47;;;;;;;7.60;3.93;;;27.90;69.10;;;;;;5089276;28;20464;-65
2022/05/04 12:59:14;;;;;;;4.57;4.17;;;27.70;75.40;;;;;;5089194;28;20448;-65
2022/05/04 13:01:41;;;;;;;4.83;4.33;;;28.30;77.60;;;;;;5085151;28;20429;-65
2022/05/04 13:04:08;;;;;;;4.17;3.77;;;27.90;80.50;;;;;;5088607;28;20432;-65
2022/05/04 13:06:35;;;;;;;4.30;3.90;;;28.20;79.40;;;;;;5088531;28;20469;-65
2022/05/04 13:09:01;;;;;;;3.83;3.30;;;29.10;76.60;;;;;;5090172;28;20525;-65
2022/05/04 13:11:31;;;;;;;5.13;3.63;;;29.80;76.70;;;;;;5091187;28;20450;-66
2022/05/04 13:13:58;;;;;;;4.20;3.60;;;29.80;78.80;;;;;;5089736;28;20569;-65
2022/05/04 13:16:25;;;;;;;6.00;4.30;;;30.20;71.30;;;;;;5084992;28;20430;-65
2022/05/04 13:18:51;;;;;;;4.77;4.30;;;29.00;67.30;;;;;;5088553;28;20506;-66